| time (UTC) | temp F | wind direction | speed knots | gust knots | rain 1hr in | rain 24hr in | rain mn in | humidity % | barometer mb |
| 20260504151041 | 70 | 231 | 0.9 | 1.7 | 0.00 | 0.00 | 0.00 | 39 | 1014.6 |
| 20260504150603 | 70 | 215 | 0.9 | 4.3 | 0.00 | 0.00 | 0.00 | 39 | 1014.9 |
| 20260504141041 | 65 | 214 | 0.0 | 0.9 | 0.00 | 0.00 | 0.00 | 46 | 1015.0 |
| 20260504140543 | 65 | 230 | 1.7 | 4.3 | 0.00 | 0.00 | 0.00 | 46 | 1015.1 |
| 20260504130544 | 60 | 226 | 0.0 | 1.7 | 0.00 | 0.00 | 0.00 | 56 | 1015.5 |
| 20260504130107 | 59 | 223 | 0.9 | 0.9 | 0.00 | 0.00 | 0.00 | 55 | 1015.6 |
| 20260504110543 | 49 | 227 | 0.0 | 0.9 | 0.00 | 0.00 | 0.00 | 66 | 1016.0 |
| 20260504100543 | 51 | 261 | 0.9 | 2.6 | 0.00 | 0.00 | 0.00 | 61 | 1015.5 |
| 20260504081543 | 49 | 0.0 | 0.0 | 0.00 | 0.00 | 0.00 | 70 | 1016.2 | |
| 20260504081122 | 50 | 0.0 | 0.0 | 0.00 | 0.00 | 0.00 | 69 | 1016.1 | |
| 20260504080543 | 50 | 0.0 | 0.0 | 0.00 | 0.00 | 0.00 | 66 | 1016.0 | |
| 20260504050543 | 53 | 257 | 0.0 | 1.7 | 0.00 | 0.00 | 0.00 | 54 | 1016.2 |
| 20260504045545 | 52 | 192 | 0.0 | 0.9 | 0.00 | 0.00 | 0.00 | 57 | 1016.0 |
| 20260504045041 | 52 | 222 | 0.9 | 2.6 | 0.00 | 0.00 | 0.00 | 57 | 1016.0 |
| 20260504044624 | 53 | 139 | 0.9 | 1.7 | 0.00 | 0.00 | 0.00 | 57 | 1015.9 |
| 20260504044047 | 53 | 200 | 0.9 | 4.3 | 0.00 | 0.00 | 0.00 | 55 | 1016.0 |
| 20260504043543 | 52 | 231 | 0.9 | 1.7 | 0.00 | 0.00 | 0.00 | 57 | 1016.2 |
| 20260504043041 | 51 | 201 | 0.9 | 1.7 | 0.00 | 0.00 | 0.00 | 60 | 1016.2 |
| 20260504042543 | 51 | 248 | 0.9 | 1.7 | 0.00 | 0.00 | 0.00 | 60 | 1016.2 |
| 20260504042047 | 51 | 230 | 0.9 | 2.6 | 0.00 | 0.00 | 0.00 | 62 | 1015.9 |
| 20260504041543 | 49 | 180 | 0.9 | 2.6 | 0.00 | 0.00 | 0.00 | 67 | 1016.1 |
| 20260504041041 | 48 | 189 | 0.9 | 1.7 | 0.00 | 0.00 | 0.00 | 68 | 1015.7 |
| 20260504040543 | 48 | 200 | 0.0 | 0.9 | 0.00 | 0.00 | 0.00 | 71 | 1016.1 |
| 20260504040040 | 47 | 176 | 0.0 | 0.9 | 0.00 | 0.00 | 0.00 | 72 | 1016.2 |
| 20260504035543 | 47 | 174 | 0.9 | 0.9 | 0.00 | 0.00 | 0.00 | 72 | 1016.1 |
| 20260504035040 | 47 | 181 | 0.0 | 0.9 | 0.00 | 0.00 | 0.00 | 72 | 1016.2 |
| 20260504034548 | 47 | 186 | 0.0 | 0.9 | 0.00 | 0.00 | 0.00 | 71 | 1016.0 |
| 20260504034039 | 47 | 163 | 0.0 | 0.9 | 0.00 | 0.00 | 0.00 | 71 | 1016.2 |
| 20260504033603 | 47 | 206 | 0.0 | 0.9 | 0.00 | 0.00 | 0.00 | 71 | 1016.2 |
| 20260504033040 | 47 | 199 | 0.0 | 0.9 | 0.00 | 0.00 | 0.00 | 71 | 1016.2 |
| 20260504032613 | 47 | 176 | 0.0 | 0.9 | 0.00 | 0.00 | 0.00 | 71 | 1015.9 |
| 20260504032059 | 47 | 180 | 0.0 | 0.9 | 0.00 | 0.00 | 0.00 | 71 | 1016.1 |
| 20260504031543 | 47 | 177 | 0.0 | 0.9 | 0.00 | 0.00 | 0.00 | 71 | 1016.1 |
| 20260504031040 | 48 | 175 | 0.0 | 0.9 | 0.00 | 0.00 | 0.00 | 68 | 1016.0 |
| 20260504030548 | 48 | 0.0 | 0.0 | 0.00 | 0.00 | 0.00 | 68 | 1016.1 | |
| 20260504030039 | 48 | 191 | 0.9 | 1.7 | 0.00 | 0.00 | 0.00 | 67 | 1016.1 |
| 20260504025543 | 48 | 201 | 0.0 | 0.9 | 0.00 | 0.00 | 0.00 | 68 | 1016.2 |
| 20260504025100 | 49 | 0.0 | 0.0 | 0.00 | 0.00 | 0.00 | 67 | 1016.2 | |
| 20260504024549 | 49 | 217 | 0.9 | 1.7 | 0.00 | 0.00 | 0.00 | 67 | 1016.1 |
| 20260504024039 | 48 | 164 | 0.9 | 1.7 | 0.00 | 0.00 | 0.00 | 67 | 1016.2 |
| 20260504023604 | 48 | 197 | 0.0 | 0.9 | 0.00 | 0.00 | 0.00 | 69 | 1016.2 |
| 20260504023040 | 49 | 0.0 | 0.0 | 0.00 | 0.00 | 0.00 | 68 | 1016.0 | |
| 20260504022548 | 48 | 0.0 | 0.0 | 0.00 | 0.00 | 0.00 | 67 | 1016.0 | |
| 20260504022039 | 48 | 0.0 | 0.0 | 0.00 | 0.00 | 0.00 | 68 | 1015.9 | |
| 20260504021543 | 49 | 0.0 | 0.0 | 0.00 | 0.00 | 0.00 | 67 | 1016.0 | |
| 20260504021100 | 49 | 0.0 | 0.0 | 0.00 | 0.00 | 0.00 | 66 | 1016.0 | |
| 20260504020548 | 49 | 0.0 | 0.0 | 0.00 | 0.00 | 0.00 | 66 | 1016.0 | |
| 20260504020039 | 49 | 192 | 0.0 | 1.7 | 0.00 | 0.00 | 0.00 | 65 | 1015.8 |
| 20260504015543 | 49 | 114 | 0.9 | 1.7 | 0.00 | 0.00 | 0.00 | 65 | 1015.9 |
| 20260504015040 | 49 | 179 | 0.0 | 0.9 | 0.00 | 0.00 | 0.00 | 66 | 1015.8 |
| 20260504014608 | 48 | 178 | 0.0 | 0.9 | 0.00 | 0.00 | 0.00 | 67 | 1015.9 |
| 20260504014040 | 48 | 153 | 0.0 | 0.9 | 0.00 | 0.00 | 0.00 | 69 | 1015.8 |
| 20260504013543 | 48 | 0.0 | 0.0 | 0.00 | 0.00 | 0.00 | 68 | 1015.8 | |
| 20260504013045 | 48 | 0.0 | 0.0 | 0.00 | 0.00 | 0.00 | 68 | 1015.7 | |
| 20260504012608 | 48 | 0.0 | 0.0 | 0.00 | 0.00 | 0.00 | 68 | 1015.6 | |
| 20260504012039 | 48 | 0.0 | 0.0 | 0.00 | 0.00 | 0.00 | 68 | 1015.5 | |
| 20260504011543 | 49 | 0.0 | 0.0 | 0.00 | 0.00 | 0.00 | 67 | 1015.5 | |
| 20260504011040 | 49 | 0.0 | 0.0 | 0.00 | 0.00 | 0.00 | 67 | 1015.5 | |
| 20260504010548 | 49 | 0.0 | 0.0 | 0.00 | 0.00 | 0.00 | 67 | 1015.5 | |
| 20260504010039 | 50 | 0.0 | 0.0 | 0.00 | 0.00 | 0.00 | 65 | 1015.4 | |
| 20260504005544 | 50 | 0.0 | 0.0 | 0.00 | 0.00 | 0.00 | 64 | 1015.4 | |
| 20260504005040 | 50 | 0.0 | 0.0 | 0.00 | 0.00 | 0.00 | 64 | 1015.3 | |
| 20260504004548 | 50 | 0.0 | 0.0 | 0.00 | 0.00 | 0.00 | 64 | 1015.3 | |
| 20260504004120 | 51 | 0.0 | 0.0 | 0.00 | 0.00 | 0.00 | 63 | 1015.3 | |
| 20260504003543 | 51 | 0.0 | 0.0 | 0.00 | 0.00 | 0.00 | 62 | 1015.2 | |
| 20260504003040 | 51 | 0.0 | 0.0 | 0.00 | 0.00 | 0.00 | 59 | 1015.2 | |
| 20260504002549 | 52 | 0.0 | 0.0 | 0.00 | 0.00 | 0.00 | 59 | 1015.2 | |
| 20260504002039 | 52 | 0.0 | 0.0 | 0.00 | 0.00 | 0.00 | 58 | 1015.2 | |
| 20260504001543 | 53 | 0.0 | 0.0 | 0.00 | 0.00 | 0.00 | 57 | 1015.3 | |
| 20260504001040 | 54 | 0.0 | 0.0 | 0.00 | 0.00 | 0.00 | 58 | 1015.2 | |
| 20260504000548 | 54 | 0.0 | 0.0 | 0.00 | 0.00 | 0.00 | 52 | 1015.1 | |
| 20260504000039 | 55 | 0.0 | 0.0 | 0.00 | 0.00 | 0.00 | 51 | 1015.1 | |
| 20260503235624 | 55 | 0.0 | 0.0 | 0.00 | 0.00 | 0.00 | 51 | 1015.1 | |
| 20260503235040 | 56 | 0.0 | 0.0 | 0.00 | 0.00 | 0.00 | 50 | 1014.9 | |
| 20260503234548 | 56 | 0.0 | 0.0 | 0.00 | 0.00 | 0.00 | 49 | 1015.0 | |
| 20260503234039 | 57 | 0.0 | 0.0 | 0.00 | 0.00 | 0.00 | 48 | 1015.0 | |
| 20260503233543 | 58 | 0.0 | 0.0 | 0.00 | 0.00 | 0.00 | 45 | 1015.0 | |
| 20260503233042 | 59 | 0.0 | 0.0 | 0.00 | 0.00 | 0.00 | 43 | 1015.0 | |
| 20260503232548 | 60 | 0.0 | 0.0 | 0.00 | 0.00 | 0.00 | 41 | 1014.9 | |
| 20260503232040 | 61 | 211 | 0.0 | 0.9 | 0.00 | 0.00 | 0.00 | 37 | 1014.7 |
| 20260503231609 | 62 | 229 | 0.0 | 0.9 | 0.00 | 0.00 | 0.00 | 36 | 1014.6 |
| 20260503231040 | 62 | 228 | 0.0 | 0.9 | 0.00 | 0.00 | 0.00 | 35 | 1014.8 |
| 20260503230548 | 62 | 276 | 0.0 | 0.9 | 0.00 | 0.00 | 0.00 | 34 | 1014.7 |
| 20260503230039 | 62 | 0.0 | 0.0 | 0.00 | 0.00 | 0.00 | 36 | 1014.7 | |
| 20260503225544 | 62 | 0.0 | 0.0 | 0.00 | 0.00 | 0.00 | 35 | 1014.6 | |
| 20260503225040 | 63 | 235 | 0.0 | 0.9 | 0.00 | 0.00 | 0.00 | 34 | 1014.7 |
| 20260503224548 | 63 | 0.0 | 0.0 | 0.00 | 0.00 | 0.00 | 33 | 1014.9 | |
| 20260503224039 | 63 | 234 | 0.0 | 0.9 | 0.00 | 0.00 | 0.00 | 32 | 1015.0 |
| 20260503223544 | 63 | 0.0 | 0.0 | 0.00 | 0.00 | 0.00 | 33 | 1014.8 | |
| 20260503223040 | 63 | 220 | 0.0 | 0.9 | 0.00 | 0.00 | 0.00 | 32 | 1014.9 |
| 20260503222608 | 63 | 228 | 0.0 | 0.9 | 0.00 | 0.00 | 0.00 | 32 | 1014.9 |
| 20260503222141 | 64 | 296 | 0.9 | 1.7 | 0.00 | 0.00 | 0.00 | 33 | 1014.9 |
| 20260503221544 | 63 | 231 | 0.9 | 1.7 | 0.00 | 0.00 | 0.00 | 33 | 1014.8 |
| 20260503221120 | 63 | 241 | 0.9 | 1.7 | 0.00 | 0.00 | 0.00 | 32 | 1014.9 |
| 20260503220548 | 63 | 283 | 0.0 | 1.7 | 0.00 | 0.00 | 0.00 | 32 | 1015.0 |
| 20260503220040 | 64 | 236 | 0.9 | 1.7 | 0.00 | 0.00 | 0.00 | 32 | 1015.0 |
| 20260503215604 | 64 | 265 | 0.9 | 1.7 | 0.00 | 0.00 | 0.00 | 32 | 1014.9 |
| 20260503214548 | 63 | 310 | 0.9 | 2.6 | 0.00 | 0.00 | 0.00 | 32 | 1014.9 |
| 20260503214045 | 63 | 244 | 0.9 | 1.7 | 0.00 | 0.00 | 0.00 | 32 | 1014.9 |
| 20260503213604 | 63 | 228 | 0.9 | 5.2 | 0.00 | 0.00 | 0.00 | 33 | 1014.9 |
| 20260503213120 | 64 | 244 | 0.9 | 1.7 | 0.00 | 0.00 | 0.00 | 31 | 1014.9 |
| 20260503212548 | 64 | 263 | 0.9 | 2.6 | 0.00 | 0.00 | 0.00 | 33 | 1015.1 |
| 20260503212040 | 64 | 318 | 0.9 | 2.6 | 0.00 | 0.00 | 0.00 | 32 | 1015.1 |
| 20260503211544 | 64 | 260 | 0.9 | 4.3 | 0.00 | 0.00 | 0.00 | 32 | 1015.1 |
| 20260503211040 | 64 | 271 | 0.9 | 1.7 | 0.00 | 0.00 | 0.00 | 33 | 1014.9 |
| 20260503210548 | 63 | 207 | 0.9 | 2.6 | 0.00 | 0.00 | 0.00 | 33 | 1015.1 |
| 20260503210040 | 63 | 256 | 0.9 | 2.6 | 0.00 | 0.00 | 0.00 | 32 | 1015.1 |
| 20260503205544 | 63 | 249 | 0.9 | 2.6 | 0.00 | 0.00 | 0.00 | 33 | 1015.0 |
| 20260503205040 | 63 | 253 | 0.9 | 2.6 | 0.00 | 0.00 | 0.00 | 33 | 1015.2 |
| 20260503204548 | 63 | 234 | 0.9 | 2.6 | 0.00 | 0.00 | 0.00 | 34 | 1015.3 |
| 20260503204040 | 63 | 205 | 0.9 | 2.6 | 0.00 | 0.00 | 0.00 | 33 | 1015.3 |
| 20260503203544 | 63 | 218 | 0.9 | 1.7 | 0.00 | 0.00 | 0.00 | 34 | 1015.4 |
| 20260503203045 | 63 | 254 | 0.0 | 0.9 | 0.00 | 0.00 | 0.00 | 33 | 1015.5 |
| 20260503202548 | 64 | 309 | 0.9 | 5.2 | 0.00 | 0.00 | 0.00 | 33 | 1015.4 |
| 20260503202040 | 64 | 326 | 0.0 | 1.7 | 0.00 | 0.00 | 0.00 | 35 | 1015.5 |
| 20260503201544 | 64 | 319 | 0.9 | 4.3 | 0.00 | 0.00 | 0.00 | 33 | 1015.6 |
| 20260503201040 | 64 | 281 | 0.9 | 2.6 | 0.00 | 0.00 | 0.00 | 33 | 1015.5 |
| 20260503200540 | 65 | 229 | 0.0 | 0.9 | 0.00 | 0.00 | 0.00 | 32 | 1015.6 |
| 20260503200040 | 64 | 316 | 0.9 | 1.7 | 0.00 | 0.00 | 0.00 | 33 | 1015.9 |
| 20260503195545 | 64 | 232 | 0.9 | 1.7 | 0.00 | 0.00 | 0.00 | 33 | 1015.7 |
| 20260503195100 | 63 | 292 | 0.9 | 1.7 | 0.00 | 0.00 | 0.00 | 34 | 1016.0 |
| 20260503194600 | 64 | 233 | 0.9 | 2.6 | 0.00 | 0.00 | 0.00 | 32 | 1016.0 |
| 20260503194040 | 64 | 315 | 0.9 | 2.6 | 0.00 | 0.00 | 0.00 | 33 | 1016.0 |
| 20260503193544 | 63 | 241 | 1.7 | 5.2 | 0.00 | 0.00 | 0.00 | 34 | 1016.2 |
| 20260503193040 | 63 | 201 | 1.7 | 5.2 | 0.00 | 0.00 | 0.00 | 34 | 1016.2 |
| 20260503192540 | 63 | 242 | 0.9 | 2.6 | 0.00 | 0.00 | 0.00 | 34 | 1016.4 |
| 20260503192100 | 63 | 312 | 1.7 | 4.3 | 0.00 | 0.00 | 0.00 | 33 | 1016.4 |
| 20260503191604 | 64 | 349 | 1.7 | 4.3 | 0.00 | 0.00 | 0.00 | 33 | 1016.4 |
| 20260503191040 | 63 | 310 | 0.9 | 2.6 | 0.00 | 0.00 | 0.00 | 34 | 1016.6 |
| 20260503190540 | 62 | 269 | 1.7 | 4.3 | 0.00 | 0.00 | 0.00 | 34 | 1016.5 |
| 20260503190040 | 63 | 228 | 1.7 | 4.3 | 0.00 | 0.00 | 0.00 | 33 | 1016.5 |
| 20260503185604 | 64 | 240 | 0.9 | 1.7 | 0.00 | 0.00 | 0.00 | 34 | 1016.7 |
| 20260503185040 | 63 | 342 | 0.9 | 1.7 | 0.00 | 0.00 | 0.00 | 34 | 1016.9 |
| 20260503184540 | 62 | 218 | 0.9 | 2.6 | 0.00 | 0.00 | 0.00 | 35 | 1016.9 |
| 20260503184040 | 64 | 338 | 1.7 | 4.3 | 0.00 | 0.00 | 0.00 | 33 | 1016.8 |
| 20260503183544 | 63 | 244 | 0.0 | 0.9 | 0.00 | 0.00 | 0.00 | 35 | 1017.0 |
| 20260503183040 | 61 | 300 | 0.9 | 4.3 | 0.00 | 0.00 | 0.00 | 36 | 1016.9 |
| 20260503182540 | 62 | 188 | 1.7 | 4.3 | 0.00 | 0.00 | 0.00 | 35 | 1017.0 |
| 20260503182040 | 62 | 104 | 0.9 | 1.7 | 0.00 | 0.00 | 0.00 | 34 | 1017.0 |
| 20260503181544 | 62 | 314 | 1.7 | 2.6 | 0.00 | 0.00 | 0.00 | 36 | 1017.1 |
| 20260503181100 | 61 | 256 | 1.7 | 4.3 | 0.00 | 0.00 | 0.00 | 37 | 1017.1 |
| 20260503180540 | 61 | 256 | 0.9 | 1.7 | 0.00 | 0.00 | 0.00 | 36 | 1017.2 |
| 20260503180040 | 61 | 234 | 0.9 | 2.6 | 0.00 | 0.00 | 0.00 | 36 | 1017.2 |
| 20260503175543 | 61 | 239 | 1.7 | 2.6 | 0.00 | 0.00 | 0.00 | 36 | 1017.2 |
| 20260503175102 | 61 | 241 | 0.9 | 1.7 | 0.00 | 0.00 | 0.00 | 35 | 1017.3 |
| 20260503174544 | 61 | 279 | 0.9 | 4.3 | 0.00 | 0.00 | 0.00 | 35 | 1017.2 |
| 20260503174040 | 60 | 232 | 0.9 | 2.6 | 0.00 | 0.00 | 0.00 | 35 | 1017.2 |
| 20260503173544 | 61 | 233 | 1.7 | 4.3 | 0.00 | 0.00 | 0.00 | 35 | 1017.2 |
| 20260503173040 | 61 | 238 | 0.9 | 1.7 | 0.00 | 0.00 | 0.00 | 36 | 1017.3 |
| 20260503172540 | 61 | 217 | 0.9 | 1.7 | 0.00 | 0.00 | 0.00 | 36 | 1017.5 |
| 20260503172040 | 60 | 323 | 1.7 | 4.3 | 0.00 | 0.00 | 0.00 | 36 | 1017.6 |
| 20260503171544 | 60 | 359 | 1.7 | 2.6 | 0.00 | 0.00 | 0.00 | 36 | 1017.4 |
| 20260503171040 | 60 | 325 | 0.9 | 2.6 | 0.00 | 0.00 | 0.00 | 39 | 1017.5 |
| 20260503170541 | 59 | 327 | 1.7 | 4.3 | 0.00 | 0.00 | 0.00 | 37 | 1017.7 |